sensor_id;sensor_type;location;lat;lon;timestamp;P1;durP1;ratioP1;P2;durP2;ratioP2
6332;SDS011;3199;49.102;8.856;2022-07-29T00:00:36;3.15;;;2.85;;
6332;SDS011;3199;49.102;8.856;2022-07-29T00:03:02;3.75;;;3.17;;
6332;SDS011;3199;49.102;8.856;2022-07-29T00:05:28;3.85;;;3.20;;
6332;SDS011;3199;49.102;8.856;2022-07-29T00:07:53;5.95;;;3.15;;
6332;SDS011;3199;49.102;8.856;2022-07-29T00:10:19;4.75;;;3.15;;
6332;SDS011;3199;49.102;8.856;2022-07-29T00:12:45;4.95;;;3.00;;
6332;SDS011;3199;49.102;8.856;2022-07-29T00:15:10;4.70;;;3.15;;
6332;SDS011;3199;49.102;8.856;2022-07-29T00:17:36;3.88;;;3.10;;
6332;SDS011;3199;49.102;8.856;2022-07-29T00:20:02;3.70;;;2.95;;
6332;SDS011;3199;49.102;8.856;2022-07-29T00:22:28;4.03;;;3.10;;
6332;SDS011;3199;49.102;8.856;2022-07-29T00:24:54;5.47;;;3.28;;
6332;SDS011;3199;49.102;8.856;2022-07-29T00:27:19;3.88;;;3.13;;
6332;SDS011;3199;49.102;8.856;2022-07-29T00:29:45;4.95;;;3.58;;
6332;SDS011;3199;49.102;8.856;2022-07-29T00:32:10;4.60;;;3.28;;
6332;SDS011;3199;49.102;8.856;2022-07-29T00:34:36;4.57;;;3.33;;
6332;SDS011;3199;49.102;8.856;2022-07-29T00:37:20;6.40;;;3.47;;
6332;SDS011;3199;49.102;8.856;2022-07-29T00:39:46;3.67;;;3.10;;
6332;SDS011;3199;49.102;8.856;2022-07-29T00:42:11;7.40;;;3.60;;
6332;SDS011;3199;49.102;8.856;2022-07-29T00:44:37;5.82;;;3.33;;
6332;SDS011;3199;49.102;8.856;2022-07-29T00:47:06;5.60;;;3.80;;
6332;SDS011;3199;49.102;8.856;2022-07-29T00:49:33;6.72;;;3.60;;
6332;SDS011;3199;49.102;8.856;2022-07-29T00:52:02;3.58;;;3.28;;
6332;SDS011;3199;49.102;8.856;2022-07-29T00:54:29;4.07;;;3.33;;
6332;SDS011;3199;49.102;8.856;2022-07-29T00:56:56;3.45;;;3.15;;
6332;SDS011;3199;49.102;8.856;2022-07-29T00:59:23;4.38;;;3.33;;
6332;SDS011;3199;49.102;8.856;2022-07-29T01:01:48;3.85;;;3.47;;
6332;SDS011;3199;49.102;8.856;2022-07-29T01:04:14;5.18;;;3.47;;
6332;SDS011;3199;49.102;8.856;2022-07-29T01:06:39;4.80;;;3.17;;
6332;SDS011;3199;49.102;8.856;2022-07-29T01:09:06;3.85;;;3.55;;
6332;SDS011;3199;49.102;8.856;2022-07-29T01:11:32;3.97;;;3.30;;
6332;SDS011;3199;49.102;8.856;2022-07-29T01:13:58;5.32;;;3.75;;
6332;SDS011;3199;49.102;8.856;2022-07-29T01:16:26;4.35;;;3.63;;
6332;SDS011;3199;49.102;8.856;2022-07-29T01:19:00;4.60;;;3.20;;
6332;SDS011;3199;49.102;8.856;2022-07-29T01:24:28;5.38;;;3.70;;
6332;SDS011;3199;49.102;8.856;2022-07-29T01:27:09;3.97;;;3.58;;
6332;SDS011;3199;49.102;8.856;2022-07-29T01:29:41;5.35;;;3.45;;
6332;SDS011;3199;49.102;8.856;2022-07-29T01:32:10;4.28;;;3.88;;
6332;SDS011;3199;49.102;8.856;2022-07-29T01:37:17;8.45;;;3.75;;
6332;SDS011;3199;49.102;8.856;2022-07-29T01:40:02;5.03;;;3.75;;
6332;SDS011;3199;49.102;8.856;2022-07-29T01:42:36;5.90;;;4.00;;
6332;SDS011;3199;49.102;8.856;2022-07-29T01:47:46;4.60;;;3.90;;
6332;SDS011;3199;49.102;8.856;2022-07-29T01:50:17;4.72;;;3.58;;
6332;SDS011;3199;49.102;8.856;2022-07-29T01:53:04;4.90;;;3.92;;
6332;SDS011;3199;49.102;8.856;2022-07-29T01:55:34;6.65;;;3.88;;
6332;SDS011;3199;49.102;8.856;2022-07-29T01:58:03;5.78;;;3.92;;
6332;SDS011;3199;49.102;8.856;2022-07-29T02:00:31;4.53;;;4.13;;
6332;SDS011;3199;49.102;8.856;2022-07-29T02:02:58;5.72;;;4.05;;
6332;SDS011;3199;49.102;8.856;2022-07-29T02:05:27;7.68;;;3.85;;
6332;SDS011;3199;49.102;8.856;2022-07-29T02:07:55;4.50;;;3.78;;
6332;SDS011;3199;49.102;8.856;2022-07-29T02:10:25;6.88;;;3.40;;
6332;SDS011;3199;49.102;8.856;2022-07-29T02:12:52;5.57;;;4.00;;
6332;SDS011;3199;49.102;8.856;2022-07-29T02:15:20;4.65;;;3.95;;
6332;SDS011;3199;49.102;8.856;2022-07-29T02:17:50;3.95;;;3.55;;
6332;SDS011;3199;49.102;8.856;2022-07-29T02:20:20;5.35;;;3.70;;
6332;SDS011;3199;49.102;8.856;2022-07-29T02:22:48;5.43;;;3.70;;
6332;SDS011;3199;49.102;8.856;2022-07-29T02:25:16;4.63;;;4.03;;
6332;SDS011;3199;49.102;8.856;2022-07-29T02:27:43;4.97;;;3.63;;
6332;SDS011;3199;49.102;8.856;2022-07-29T02:30:10;7.25;;;4.13;;
6332;SDS011;3199;49.102;8.856;2022-07-29T02:32:37;5.03;;;3.80;;
6332;SDS011;3199;49.102;8.856;2022-07-29T02:35:06;3.70;;;3.35;;
6332;SDS011;3199;49.102;8.856;2022-07-29T02:37:33;6.40;;;4.22;;
6332;SDS011;3199;49.102;8.856;2022-07-29T02:40:01;8.45;;;3.97;;
6332;SDS011;3199;49.102;8.856;2022-07-29T02:42:27;4.40;;;4.00;;
6332;SDS011;3199;49.102;8.856;2022-07-29T02:44:54;4.85;;;4.00;;
6332;SDS011;3199;49.102;8.856;2022-07-29T02:50:18;8.15;;;4.45;;
6332;SDS011;3199;49.102;8.856;2022-07-29T02:53:04;4.05;;;3.65;;
6332;SDS011;3199;49.102;8.856;2022-07-29T02:55:37;5.82;;;3.78;;
6332;SDS011;3199;49.102;8.856;2022-07-29T02:58:13;6.50;;;4.05;;
6332;SDS011;3199;49.102;8.856;2022-07-29T03:00:53;5.38;;;4.40;;
6332;SDS011;3199;49.102;8.856;2022-07-29T03:03:21;5.85;;;4.10;;
6332;SDS011;3199;49.102;8.856;2022-07-29T03:05:51;6.18;;;3.88;;
6332;SDS011;3199;49.102;8.856;2022-07-29T03:08:19;5.90;;;4.13;;
6332;SDS011;3199;49.102;8.856;2022-07-29T03:10:46;4.53;;;3.70;;
6332;SDS011;3199;49.102;8.856;2022-07-29T03:13:13;7.80;;;4.13;;
6332;SDS011;3199;49.102;8.856;2022-07-29T03:15:41;6.03;;;3.92;;
6332;SDS011;3199;49.102;8.856;2022-07-29T03:18:09;5.47;;;4.10;;
6332;SDS011;3199;49.102;8.856;2022-07-29T03:20:35;4.68;;;3.63;;
6332;SDS011;3199;49.102;8.856;2022-07-29T03:23:02;6.70;;;4.00;;
6332;SDS011;3199;49.102;8.856;2022-07-29T03:25:28;5.82;;;4.00;;
6332;SDS011;3199;49.102;8.856;2022-07-29T03:27:53;6.15;;;4.53;;
6332;SDS011;3199;49.102;8.856;2022-07-29T03:30:19;4.82;;;3.90;;
6332;SDS011;3199;49.102;8.856;2022-07-29T03:32:45;5.18;;;3.97;;
6332;SDS011;3199;49.102;8.856;2022-07-29T03:35:10;7.35;;;4.60;;
6332;SDS011;3199;49.102;8.856;2022-07-29T03:37:36;7.20;;;4.60;;
6332;SDS011;3199;49.102;8.856;2022-07-29T03:40:03;5.00;;;4.30;;
6332;SDS011;3199;49.102;8.856;2022-07-29T03:42:32;4.72;;;4.00;;
6332;SDS011;3199;49.102;8.856;2022-07-29T03:45:02;4.70;;;4.30;;
6332;SDS011;3199;49.102;8.856;2022-07-29T03:47:31;4.78;;;3.70;;
6332;SDS011;3199;49.102;8.856;2022-07-29T03:50:00;4.70;;;4.03;;
6332;SDS011;3199;49.102;8.856;2022-07-29T03:52:30;4.10;;;3.78;;
6332;SDS011;3199;49.102;8.856;2022-07-29T03:54:56;4.30;;;3.90;;
6332;SDS011;3199;49.102;8.856;2022-07-29T03:57:23;4.10;;;3.70;;
6332;SDS011;3199;49.102;8.856;2022-07-29T03:59:52;4.75;;;3.60;;
6332;SDS011;3199;49.102;8.856;2022-07-29T04:02:18;4.43;;;3.70;;
6332;SDS011;3199;49.102;8.856;2022-07-29T04:04:44;4.03;;;3.28;;
6332;SDS011;3199;49.102;8.856;2022-07-29T04:07:14;7.00;;;4.05;;
6332;SDS011;3199;49.102;8.856;2022-07-29T04:09:40;6.13;;;3.50;;
6332;SDS011;3199;49.102;8.856;2022-07-29T04:12:06;5.13;;;4.22;;
6332;SDS011;3199;49.102;8.856;2022-07-29T04:14:32;4.28;;;3.80;;
6332;SDS011;3199;49.102;8.856;2022-07-29T04:16:59;4.63;;;3.83;;
6332;SDS011;3199;49.102;8.856;2022-07-29T04:19:26;5.63;;;3.65;;
6332;SDS011;3199;49.102;8.856;2022-07-29T04:21:52;4.25;;;3.85;;
6332;SDS011;3199;49.102;8.856;2022-07-29T04:24:17;6.20;;;3.40;;
6332;SDS011;3199;49.102;8.856;2022-07-29T04:26:43;5.60;;;3.80;;
6332;SDS011;3199;49.102;8.856;2022-07-29T04:29:10;5.13;;;3.65;;
6332;SDS011;3199;49.102;8.856;2022-07-29T04:31:36;3.92;;;3.50;;
6332;SDS011;3199;49.102;8.856;2022-07-29T04:34:02;3.63;;;3.33;;
6332;SDS011;3199;49.102;8.856;2022-07-29T04:36:27;4.15;;;3.60;;
6332;SDS011;3199;49.102;8.856;2022-07-29T04:38:53;4.15;;;3.50;;
6332;SDS011;3199;49.102;8.856;2022-07-29T04:41:19;3.75;;;3.33;;
6332;SDS011;3199;49.102;8.856;2022-07-29T04:43:44;5.03;;;3.20;;
6332;SDS011;3199;49.102;8.856;2022-07-29T04:46:09;4.25;;;3.47;;
6332;SDS011;3199;49.102;8.856;2022-07-29T04:48:35;6.70;;;4.50;;
6332;SDS011;3199;49.102;8.856;2022-07-29T04:51:01;6.93;;;4.40;;
6332;SDS011;3199;49.102;8.856;2022-07-29T04:53:26;5.57;;;3.35;;
6332;SDS011;3199;49.102;8.856;2022-07-29T04:55:51;4.30;;;3.35;;
6332;SDS011;3199;49.102;8.856;2022-07-29T04:58:17;4.30;;;3.47;;
6332;SDS011;3199;49.102;8.856;2022-07-29T05:00:43;4.32;;;3.50;;
6332;SDS011;3199;49.102;8.856;2022-07-29T05:03:08;3.38;;;3.08;;
6332;SDS011;3199;49.102;8.856;2022-07-29T05:05:34;4.85;;;3.40;;
6332;SDS011;3199;49.102;8.856;2022-07-29T05:07:59;6.15;;;3.40;;
6332;SDS011;3199;49.102;8.856;2022-07-29T05:10:25;13.32;;;8.35;;
6332;SDS011;3199;49.102;8.856;2022-07-29T05:12:50;4.75;;;4.10;;
6332;SDS011;3199;49.102;8.856;2022-07-29T05:15:16;6.45;;;4.20;;
6332;SDS011;3199;49.102;8.856;2022-07-29T05:17:42;3.72;;;3.30;;
6332;SDS011;3199;49.102;8.856;2022-07-29T05:20:08;5.55;;;3.10;;
6332;SDS011;3199;49.102;8.856;2022-07-29T05:22:34;5.40;;;3.20;;
6332;SDS011;3199;49.102;8.856;2022-07-29T05:25:00;4.60;;;2.95;;
6332;SDS011;3199;49.102;8.856;2022-07-29T05:27:25;4.53;;;3.03;;
6332;SDS011;3199;49.102;8.856;2022-07-29T05:29:51;4.93;;;2.97;;
6332;SDS011;3199;49.102;8.856;2022-07-29T05:32:16;4.28;;;2.97;;
6332;SDS011;3199;49.102;8.856;2022-07-29T05:34:42;3.30;;;2.92;;
6332;SDS011;3199;49.102;8.856;2022-07-29T05:37:08;5.68;;;3.17;;
6332;SDS011;3199;49.102;8.856;2022-07-29T05:39:33;4.32;;;2.60;;
6332;SDS011;3199;49.102;8.856;2022-07-29T05:41:59;2.67;;;2.40;;
6332;SDS011;3199;49.102;8.856;2022-07-29T05:44:24;3.60;;;2.80;;
6332;SDS011;3199;49.102;8.856;2022-07-29T05:46:50;3.13;;;2.60;;
6332;SDS011;3199;49.102;8.856;2022-07-29T05:49:15;5.53;;;3.35;;
6332;SDS011;3199;49.102;8.856;2022-07-29T05:51:41;3.45;;;3.13;;
6332;SDS011;3199;49.102;8.856;2022-07-29T05:54:06;4.03;;;2.90;;
6332;SDS011;3199;49.102;8.856;2022-07-29T05:56:32;5.75;;;2.90;;
6332;SDS011;3199;49.102;8.856;2022-07-29T05:58:57;4.57;;;2.97;;
6332;SDS011;3199;49.102;8.856;2022-07-29T06:01:23;6.05;;;3.03;;
6332;SDS011;3199;49.102;8.856;2022-07-29T06:03:49;4.18;;;3.10;;
6332;SDS011;3199;49.102;8.856;2022-07-29T06:06:14;4.40;;;3.03;;
6332;SDS011;3199;49.102;8.856;2022-07-29T06:08:40;3.45;;;2.70;;
6332;SDS011;3199;49.102;8.856;2022-07-29T06:11:05;4.55;;;2.60;;
6332;SDS011;3199;49.102;8.856;2022-07-29T06:13:32;4.70;;;3.13;;
6332;SDS011;3199;49.102;8.856;2022-07-29T06:15:57;4.57;;;3.20;;
6332;SDS011;3199;49.102;8.856;2022-07-29T06:18:23;3.70;;;2.80;;
6332;SDS011;3199;49.102;8.856;2022-07-29T06:20:51;3.60;;;2.75;;
6332;SDS011;3199;49.102;8.856;2022-07-29T06:23:18;3.05;;;2.63;;
6332;SDS011;3199;49.102;8.856;2022-07-29T06:25:44;5.18;;;2.60;;
6332;SDS011;3199;49.102;8.856;2022-07-29T06:28:09;3.88;;;3.10;;
6332;SDS011;3199;49.102;8.856;2022-07-29T06:30:35;2.83;;;2.63;;
6332;SDS011;3199;49.102;8.856;2022-07-29T06:33:01;4.63;;;2.92;;
6332;SDS011;3199;49.102;8.856;2022-07-29T06:35:27;2.70;;;2.50;;
6332;SDS011;3199;49.102;8.856;2022-07-29T06:37:52;3.10;;;2.60;;
6332;SDS011;3199;49.102;8.856;2022-07-29T06:40:18;3.05;;;2.50;;
6332;SDS011;3199;49.102;8.856;2022-07-29T06:43:03;3.95;;;2.72;;
6332;SDS011;3199;49.102;8.856;2022-07-29T06:45:28;2.90;;;2.60;;
6332;SDS011;3199;49.102;8.856;2022-07-29T06:47:54;4.93;;;3.00;;
6332;SDS011;3199;49.102;8.856;2022-07-29T06:50:20;3.75;;;2.80;;
6332;SDS011;3199;49.102;8.856;2022-07-29T06:52:46;6.60;;;3.22;;
6332;SDS011;3199;49.102;8.856;2022-07-29T06:55:12;8.07;;;3.38;;
6332;SDS011;3199;49.102;8.856;2022-07-29T06:57:39;3.13;;;2.85;;
6332;SDS011;3199;49.102;8.856;2022-07-29T07:00:04;5.22;;;3.35;;
6332;SDS011;3199;49.102;8.856;2022-07-29T07:02:30;5.30;;;3.17;;
6332;SDS011;3199;49.102;8.856;2022-07-29T07:04:56;8.27;;;3.47;;
6332;SDS011;3199;49.102;8.856;2022-07-29T07:07:23;5.25;;;3.25;;
6332;SDS011;3199;49.102;8.856;2022-07-29T07:09:49;8.32;;;3.80;;
6332;SDS011;3199;49.102;8.856;2022-07-29T07:12:15;7.78;;;3.47;;
6332;SDS011;3199;49.102;8.856;2022-07-29T07:14:40;4.78;;;2.97;;
6332;SDS011;3199;49.102;8.856;2022-07-29T07:17:06;5.00;;;3.40;;
6332;SDS011;3199;49.102;8.856;2022-07-29T07:19:31;5.10;;;3.40;;
6332;SDS011;3199;49.102;8.856;2022-07-29T07:21:57;5.65;;;3.28;;
6332;SDS011;3199;49.102;8.856;2022-07-29T07:24:23;5.25;;;3.10;;
6332;SDS011;3199;49.102;8.856;2022-07-29T07:26:48;4.57;;;2.83;;
6332;SDS011;3199;49.102;8.856;2022-07-29T07:29:14;3.70;;;2.78;;
6332;SDS011;3199;49.102;8.856;2022-07-29T07:31:39;6.55;;;2.80;;
6332;SDS011;3199;49.102;8.856;2022-07-29T07:34:05;5.82;;;3.03;;
6332;SDS011;3199;49.102;8.856;2022-07-29T07:36:30;3.53;;;2.60;;
6332;SDS011;3199;49.102;8.856;2022-07-29T07:38:56;4.00;;;2.85;;
6332;SDS011;3199;49.102;8.856;2022-07-29T07:41:22;4.07;;;2.65;;
6332;SDS011;3199;49.102;8.856;2022-07-29T07:43:48;3.35;;;2.63;;
6332;SDS011;3199;49.102;8.856;2022-07-29T07:46:13;3.50;;;2.67;;
6332;SDS011;3199;49.102;8.856;2022-07-29T07:48:39;8.07;;;2.70;;
6332;SDS011;3199;49.102;8.856;2022-07-29T07:51:05;3.90;;;3.22;;
6332;SDS011;3199;49.102;8.856;2022-07-29T07:53:32;3.35;;;2.60;;
6332;SDS011;3199;49.102;8.856;2022-07-29T07:55:57;4.22;;;2.65;;
6332;SDS011;3199;49.102;8.856;2022-07-29T07:58:23;4.55;;;2.60;;
6332;SDS011;3199;49.102;8.856;2022-07-29T08:00:48;4.75;;;2.70;;
6332;SDS011;3199;49.102;8.856;2022-07-29T08:03:14;3.45;;;2.70;;
6332;SDS011;3199;49.102;8.856;2022-07-29T08:05:40;5.97;;;2.90;;
6332;SDS011;3199;49.102;8.856;2022-07-29T08:08:06;5.25;;;2.80;;
6332;SDS011;3199;49.102;8.856;2022-07-29T08:10:32;3.85;;;2.58;;
6332;SDS011;3199;49.102;8.856;2022-07-29T08:13:17;5.95;;;3.00;;
6332;SDS011;3199;49.102;8.856;2022-07-29T08:15:43;4.38;;;3.03;;
6332;SDS011;3199;49.102;8.856;2022-07-29T08:18:11;4.35;;;2.70;;
6332;SDS011;3199;49.102;8.856;2022-07-29T08:20:37;6.20;;;3.33;;
6332;SDS011;3199;49.102;8.856;2022-07-29T08:23:04;3.95;;;2.70;;
6332;SDS011;3199;49.102;8.856;2022-07-29T08:25:32;3.15;;;2.90;;
6332;SDS011;3199;49.102;8.856;2022-07-29T08:27:58;7.05;;;3.03;;
6332;SDS011;3199;49.102;8.856;2022-07-29T08:30:24;3.58;;;2.53;;
6332;SDS011;3199;49.102;8.856;2022-07-29T08:32:49;4.85;;;2.83;;
6332;SDS011;3199;49.102;8.856;2022-07-29T08:35:17;4.78;;;3.20;;
6332;SDS011;3199;49.102;8.856;2022-07-29T08:37:44;6.45;;;2.80;;
6332;SDS011;3199;49.102;8.856;2022-07-29T08:40:10;4.40;;;2.80;;
6332;SDS011;3199;49.102;8.856;2022-07-29T08:42:35;5.13;;;2.70;;
6332;SDS011;3199;49.102;8.856;2022-07-29T08:45:02;5.10;;;2.67;;
6332;SDS011;3199;49.102;8.856;2022-07-29T08:47:28;4.63;;;3.28;;
6332;SDS011;3199;49.102;8.856;2022-07-29T08:49:54;3.45;;;3.05;;
6332;SDS011;3199;49.102;8.856;2022-07-29T08:52:20;3.00;;;2.70;;
6332;SDS011;3199;49.102;8.856;2022-07-29T08:54:48;5.15;;;3.15;;
6332;SDS011;3199;49.102;8.856;2022-07-29T08:57:14;8.38;;;4.18;;
6332;SDS011;3199;49.102;8.856;2022-07-29T08:59:40;4.50;;;3.42;;
6332;SDS011;3199;49.102;8.856;2022-07-29T09:02:12;4.18;;;3.00;;
6332;SDS011;3199;49.102;8.856;2022-07-29T09:04:44;5.63;;;3.72;;
6332;SDS011;3199;49.102;8.856;2022-07-29T09:07:10;3.60;;;3.10;;
6332;SDS011;3199;49.102;8.856;2022-07-29T09:09:40;3.42;;;2.72;;
6332;SDS011;3199;49.102;8.856;2022-07-29T09:12:06;7.95;;;3.30;;
6332;SDS011;3199;49.102;8.856;2022-07-29T09:14:33;4.75;;;3.10;;
6332;SDS011;3199;49.102;8.856;2022-07-29T09:16:58;5.80;;;2.85;;
6332;SDS011;3199;49.102;8.856;2022-07-29T09:19:25;3.35;;;3.05;;
6332;SDS011;3199;49.102;8.856;2022-07-29T09:22:00;3.20;;;3.00;;
6332;SDS011;3199;49.102;8.856;2022-07-29T09:24:29;3.60;;;3.30;;
6332;SDS011;3199;49.102;8.856;2022-07-29T09:27:01;3.78;;;2.67;;
6332;SDS011;3199;49.102;8.856;2022-07-29T09:29:27;5.25;;;2.78;;
6332;SDS011;3199;49.102;8.856;2022-07-29T09:31:53;4.95;;;3.05;;
6332;SDS011;3199;49.102;8.856;2022-07-29T09:34:24;3.17;;;2.83;;
6332;SDS011;3199;49.102;8.856;2022-07-29T09:36:51;7.38;;;2.80;;
6332;SDS011;3199;49.102;8.856;2022-07-29T09:39:37;4.13;;;3.00;;
6332;SDS011;3199;49.102;8.856;2022-07-29T09:42:10;4.97;;;3.22;;
6332;SDS011;3199;49.102;8.856;2022-07-29T09:44:57;4.28;;;3.75;;
6332;SDS011;3199;49.102;8.856;2022-07-29T09:47:22;4.22;;;2.88;;
6332;SDS011;3199;49.102;8.856;2022-07-29T09:50:06;6.15;;;2.92;;
6332;SDS011;3199;49.102;8.856;2022-07-29T09:52:32;4.50;;;3.20;;
6332;SDS011;3199;49.102;8.856;2022-07-29T09:55:13;5.38;;;2.90;;
6332;SDS011;3199;49.102;8.856;2022-07-29T09:57:40;3.50;;;2.75;;
6332;SDS011;3199;49.102;8.856;2022-07-29T10:00:09;4.88;;;3.00;;
6332;SDS011;3199;49.102;8.856;2022-07-29T10:02:40;3.40;;;3.10;;
6332;SDS011;3199;49.102;8.856;2022-07-29T10:05:16;5.45;;;2.90;;
6332;SDS011;3199;49.102;8.856;2022-07-29T10:07:54;4.88;;;3.05;;
6332;SDS011;3199;49.102;8.856;2022-07-29T10:10:22;6.88;;;3.00;;
6332;SDS011;3199;49.102;8.856;2022-07-29T10:15:26;3.55;;;2.63;;
6332;SDS011;3199;49.102;8.856;2022-07-29T10:17:53;5.03;;;2.90;;
6332;SDS011;3199;49.102;8.856;2022-07-29T10:20:20;4.30;;;3.05;;
6332;SDS011;3199;49.102;8.856;2022-07-29T10:22:48;3.03;;;2.72;;
6332;SDS011;3199;49.102;8.856;2022-07-29T10:25:15;4.32;;;2.85;;
6332;SDS011;3199;49.102;8.856;2022-07-29T10:27:42;2.97;;;2.50;;
6332;SDS011;3199;49.102;8.856;2022-07-29T10:30:09;5.00;;;2.55;;
6332;SDS011;3199;49.102;8.856;2022-07-29T10:35:15;3.92;;;2.30;;
6332;SDS011;3199;49.102;8.856;2022-07-29T10:40:45;8.18;;;2.90;;
6332;SDS011;3199;49.102;8.856;2022-07-29T10:46:27;4.43;;;2.70;;
6332;SDS011;3199;49.102;8.856;2022-07-29T10:59:42;4.22;;;2.55;;
6332;SDS011;3199;49.102;8.856;2022-07-29T11:07:22;2.55;;;2.22;;
6332;SDS011;3199;49.102;8.856;2022-07-29T11:15:12;3.63;;;2.50;;
6332;SDS011;3199;49.102;8.856;2022-07-29T11:23:17;4.97;;;2.30;;
6332;SDS011;3199;49.102;8.856;2022-07-29T11:31:40;4.03;;;2.20;;
6332;SDS011;3199;49.102;8.856;2022-07-29T11:34:21;3.30;;;2.38;;
6332;SDS011;3199;49.102;8.856;2022-07-29T11:39:35;2.85;;;2.53;;
6332;SDS011;3199;49.102;8.856;2022-07-29T11:47:22;4.72;;;2.50;;
6332;SDS011;3199;49.102;8.856;2022-07-29T11:49:52;2.78;;;2.58;;
6332;SDS011;3199;49.102;8.856;2022-07-29T11:52:20;4.68;;;2.40;;
6332;SDS011;3199;49.102;8.856;2022-07-29T11:54:51;3.05;;;2.30;;
6332;SDS011;3199;49.102;8.856;2022-07-29T11:57:17;5.18;;;3.05;;
6332;SDS011;3199;49.102;8.856;2022-07-29T11:59:45;5.10;;;2.72;;
6332;SDS011;3199;49.102;8.856;2022-07-29T12:02:12;4.28;;;2.60;;
6332;SDS011;3199;49.102;8.856;2022-07-29T12:04:58;3.40;;;2.17;;
6332;SDS011;3199;49.102;8.856;2022-07-29T12:07:30;2.97;;;2.38;;
6332;SDS011;3199;49.102;8.856;2022-07-29T12:09:57;5.10;;;2.30;;
6332;SDS011;3199;49.102;8.856;2022-07-29T12:12:23;4.50;;;2.50;;
6332;SDS011;3199;49.102;8.856;2022-07-29T12:14:49;2.97;;;2.65;;
6332;SDS011;3199;49.102;8.856;2022-07-29T12:17:31;2.60;;;2.40;;
6332;SDS011;3199;49.102;8.856;2022-07-29T12:20:01;3.10;;;2.25;;
6332;SDS011;3199;49.102;8.856;2022-07-29T12:22:29;2.78;;;2.58;;
6332;SDS011;3199;49.102;8.856;2022-07-29T12:25:00;4.00;;;2.38;;
6332;SDS011;3199;49.102;8.856;2022-07-29T12:27:31;3.35;;;2.53;;
6332;SDS011;3199;49.102;8.856;2022-07-29T12:30:01;4.85;;;2.63;;
6332;SDS011;3199;49.102;8.856;2022-07-29T12:32:33;3.28;;;2.50;;
6332;SDS011;3199;49.102;8.856;2022-07-29T12:35:01;4.78;;;2.40;;
6332;SDS011;3199;49.102;8.856;2022-07-29T12:37:29;3.25;;;2.60;;
6332;SDS011;3199;49.102;8.856;2022-07-29T12:39:55;2.58;;;2.30;;
6332;SDS011;3199;49.102;8.856;2022-07-29T12:42:21;3.83;;;2.15;;
6332;SDS011;3199;49.102;8.856;2022-07-29T12:44:47;5.18;;;2.55;;
6332;SDS011;3199;49.102;8.856;2022-07-29T12:47:14;3.30;;;2.65;;
6332;SDS011;3199;49.102;8.856;2022-07-29T12:49:40;4.43;;;2.80;;
6332;SDS011;3199;49.102;8.856;2022-07-29T12:54:54;2.58;;;2.38;;
6332;SDS011;3199;49.102;8.856;2022-07-29T12:57:20;3.60;;;2.47;;
6332;SDS011;3199;49.102;8.856;2022-07-29T12:59:58;4.10;;;2.63;;
6332;SDS011;3199;49.102;8.856;2022-07-29T13:02:24;3.08;;;2.40;;
6332;SDS011;3199;49.102;8.856;2022-07-29T13:04:57;4.38;;;2.80;;
6332;SDS011;3199;49.102;8.856;2022-07-29T13:07:25;3.97;;;2.58;;
6332;SDS011;3199;49.102;8.856;2022-07-29T13:09:52;4.15;;;2.33;;
6332;SDS011;3199;49.102;8.856;2022-07-29T13:12:18;5.90;;;2.60;;
6332;SDS011;3199;49.102;8.856;2022-07-29T13:14:47;4.25;;;2.70;;
6332;SDS011;3199;49.102;8.856;2022-07-29T13:17:14;3.10;;;2.60;;
6332;SDS011;3199;49.102;8.856;2022-07-29T13:22:15;3.05;;;2.65;;
6332;SDS011;3199;49.102;8.856;2022-07-29T13:24:55;4.50;;;2.50;;
6332;SDS011;3199;49.102;8.856;2022-07-29T13:27:22;3.10;;;2.63;;
6332;SDS011;3199;49.102;8.856;2022-07-29T13:29:50;5.38;;;2.40;;
6332;SDS011;3199;49.102;8.856;2022-07-29T13:32:17;4.53;;;3.10;;
6332;SDS011;3199;49.102;8.856;2022-07-29T13:34:45;4.38;;;2.65;;
6332;SDS011;3199;49.102;8.856;2022-07-29T13:37:11;3.47;;;3.00;;
6332;SDS011;3199;49.102;8.856;2022-07-29T13:39:37;6.68;;;2.53;;
6332;SDS011;3199;49.102;8.856;2022-07-29T13:42:03;4.88;;;2.70;;
6332;SDS011;3199;49.102;8.856;2022-07-29T13:44:29;4.72;;;2.70;;
6332;SDS011;3199;49.102;8.856;2022-07-29T13:46:55;3.17;;;2.80;;
6332;SDS011;3199;49.102;8.856;2022-07-29T13:49:21;4.88;;;2.50;;
6332;SDS011;3199;49.102;8.856;2022-07-29T13:51:48;3.20;;;2.63;;
6332;SDS011;3199;49.102;8.856;2022-07-29T13:54:14;2.70;;;2.50;;
6332;SDS011;3199;49.102;8.856;2022-07-29T13:56:40;4.13;;;2.70;;
6332;SDS011;3199;49.102;8.856;2022-07-29T13:59:05;4.07;;;2.90;;
6332;SDS011;3199;49.102;8.856;2022-07-29T14:01:32;3.15;;;2.60;;
6332;SDS011;3199;49.102;8.856;2022-07-29T14:03:59;2.92;;;2.55;;
6332;SDS011;3199;49.102;8.856;2022-07-29T14:06:25;2.55;;;2.35;;
6332;SDS011;3199;49.102;8.856;2022-07-29T14:08:51;3.15;;;2.60;;
6332;SDS011;3199;49.102;8.856;2022-07-29T14:11:16;2.83;;;2.53;;
6332;SDS011;3199;49.102;8.856;2022-07-29T14:13:42;4.25;;;2.53;;
6332;SDS011;3199;49.102;8.856;2022-07-29T14:16:07;4.13;;;2.50;;
6332;SDS011;3199;49.102;8.856;2022-07-29T14:18:33;2.42;;;2.28;;
6332;SDS011;3199;49.102;8.856;2022-07-29T14:20:58;5.28;;;2.50;;
6332;SDS011;3199;49.102;8.856;2022-07-29T14:23:24;4.63;;;2.15;;
6332;SDS011;3199;49.102;8.856;2022-07-29T14:25:50;4.75;;;1.92;;
6332;SDS011;3199;49.102;8.856;2022-07-29T14:28:16;6.50;;;1.90;;
6332;SDS011;3199;49.102;8.856;2022-07-29T14:30:41;3.47;;;1.88;;
6332;SDS011;3199;49.102;8.856;2022-07-29T14:33:07;3.47;;;1.60;;
6332;SDS011;3199;49.102;8.856;2022-07-29T14:35:33;1.58;;;1.45;;
6332;SDS011;3199;49.102;8.856;2022-07-29T14:37:58;2.90;;;1.90;;
6332;SDS011;3199;49.102;8.856;2022-07-29T14:40:24;4.05;;;1.92;;
6332;SDS011;3199;49.102;8.856;2022-07-29T14:42:50;2.90;;;1.83;;
6332;SDS011;3199;49.102;8.856;2022-07-29T14:45:16;2.90;;;1.92;;
6332;SDS011;3199;49.102;8.856;2022-07-29T14:47:41;3.88;;;1.73;;
6332;SDS011;3199;49.102;8.856;2022-07-29T14:50:08;1.73;;;1.55;;
6332;SDS011;3199;49.102;8.856;2022-07-29T14:52:34;3.30;;;1.92;;
6332;SDS011;3199;49.102;8.856;2022-07-29T14:54:59;5.03;;;1.63;;
6332;SDS011;3199;49.102;8.856;2022-07-29T14:57:25;2.53;;;1.60;;
6332;SDS011;3199;49.102;8.856;2022-07-29T14:59:51;3.72;;;1.65;;
6332;SDS011;3199;49.102;8.856;2022-07-29T15:02:17;2.85;;;1.50;;
6332;SDS011;3199;49.102;8.856;2022-07-29T15:04:42;4.35;;;1.70;;
6332;SDS011;3199;49.102;8.856;2022-07-29T15:07:09;2.30;;;1.58;;
6332;SDS011;3199;49.102;8.856;2022-07-29T15:09:34;3.10;;;1.60;;
6332;SDS011;3199;49.102;8.856;2022-07-29T15:12:00;2.83;;;1.50;;
6332;SDS011;3199;49.102;8.856;2022-07-29T15:14:27;2.00;;;1.50;;
6332;SDS011;3199;49.102;8.856;2022-07-29T15:16:53;1.65;;;1.45;;
6332;SDS011;3199;49.102;8.856;2022-07-29T15:19:18;1.58;;;1.40;;
6332;SDS011;3199;49.102;8.856;2022-07-29T15:21:44;1.67;;;1.25;;
6332;SDS011;3199;49.102;8.856;2022-07-29T15:24:09;4.25;;;1.30;;
6332;SDS011;3199;49.102;8.856;2022-07-29T15:26:35;2.35;;;1.60;;
6332;SDS011;3199;49.102;8.856;2022-07-29T15:29:00;2.47;;;1.50;;
6332;SDS011;3199;49.102;8.856;2022-07-29T15:31:26;3.45;;;1.40;;
6332;SDS011;3199;49.102;8.856;2022-07-29T15:33:52;4.68;;;1.65;;
6332;SDS011;3199;49.102;8.856;2022-07-29T15:36:17;2.08;;;1.70;;
6332;SDS011;3199;49.102;8.856;2022-07-29T15:38:43;4.68;;;1.92;;
6332;SDS011;3199;49.102;8.856;2022-07-29T15:41:12;3.58;;;1.58;;
6332;SDS011;3199;49.102;8.856;2022-07-29T15:43:41;1.52;;;1.40;;
6332;SDS011;3199;49.102;8.856;2022-07-29T15:46:08;1.60;;;1.50;;
6332;SDS011;3199;49.102;8.856;2022-07-29T15:48:52;4.43;;;1.90;;
6332;SDS011;3199;49.102;8.856;2022-07-29T15:51:17;3.78;;;1.58;;
6332;SDS011;3199;49.102;8.856;2022-07-29T15:53:43;3.10;;;1.50;;
6332;SDS011;3199;49.102;8.856;2022-07-29T15:56:09;2.20;;;1.25;;
6332;SDS011;3199;49.102;8.856;2022-07-29T15:58:34;4.05;;;1.35;;
6332;SDS011;3199;49.102;8.856;2022-07-29T16:01:00;1.65;;;1.52;;
6332;SDS011;3199;49.102;8.856;2022-07-29T16:03:25;2.05;;;1.17;;
6332;SDS011;3199;49.102;8.856;2022-07-29T16:05:51;2.20;;;1.35;;
6332;SDS011;3199;49.102;8.856;2022-07-29T16:08:16;4.63;;;1.63;;
6332;SDS011;3199;49.102;8.856;2022-07-29T16:10:42;2.58;;;1.30;;
6332;SDS011;3199;49.102;8.856;2022-07-29T16:13:07;4.18;;;1.60;;
6332;SDS011;3199;49.102;8.856;2022-07-29T16:15:33;2.25;;;1.42;;
6332;SDS011;3199;49.102;8.856;2022-07-29T16:17:58;1.67;;;1.52;;
6332;SDS011;3199;49.102;8.856;2022-07-29T16:20:24;1.40;;;1.30;;
6332;SDS011;3199;49.102;8.856;2022-07-29T16:22:50;3.10;;;1.20;;
6332;SDS011;3199;49.102;8.856;2022-07-29T16:25:15;1.92;;;1.20;;